createdAt,value
2023-01-19T00:01:35.225Z,8.85
2023-01-19T00:04:01.639Z,9.35
2023-01-19T00:06:28.474Z,9.65
2023-01-19T00:08:55.079Z,9.73
2023-01-19T00:11:21.513Z,10.07
2023-01-19T00:13:51.124Z,10.60
2023-01-19T00:16:19.391Z,9.63
2023-01-19T00:18:46.288Z,9.10
2023-01-19T00:21:14.802Z,10.38
2023-01-19T00:23:41.980Z,10.52
2023-01-19T00:26:08.778Z,10.20
2023-01-19T00:28:35.337Z,10.10
2023-01-19T00:31:01.859Z,9.40
2023-01-19T00:33:28.445Z,10.68
2023-01-19T00:35:57.515Z,10.63
2023-01-19T00:38:24.001Z,8.27
2023-01-19T00:40:50.532Z,10.73
2023-01-19T00:43:16.957Z,9.77
2023-01-19T00:45:43.400Z,10.65
2023-01-19T00:48:09.910Z,10.20
2023-01-19T00:50:36.443Z,9.48
2023-01-19T00:53:03.422Z,10.05
2023-01-19T00:55:31.474Z,9.70
2023-01-19T00:57:57.956Z,10.13
2023-01-19T01:00:25.019Z,11.00
2023-01-19T01:02:52.885Z,10.57
2023-01-19T01:05:20.051Z,10.80
2023-01-19T01:07:49.366Z,10.10
2023-01-19T01:10:21.865Z,11.00
2023-01-19T01:12:57.577Z,10.23
2023-01-19T01:15:26.930Z,9.98
2023-01-19T01:17:53.572Z,10.23
2023-01-19T01:20:26.974Z,10.55
2023-01-19T01:22:54.805Z,10.20
2023-01-19T01:25:23.025Z,10.07
2023-01-19T01:27:50.164Z,10.98
2023-01-19T01:30:16.930Z,10.82
2023-01-19T01:32:43.722Z,10.10
2023-01-19T01:35:10.919Z,10.68
2023-01-19T01:37:37.487Z,10.80
2023-01-19T01:40:06.113Z,10.40
2023-01-19T01:42:33.914Z,11.13
2023-01-19T01:45:03.421Z,10.77
2023-01-19T01:47:33.127Z,9.75
2023-01-19T01:50:05.501Z,11.70
2023-01-19T01:52:34.858Z,10.20
2023-01-19T01:55:02.915Z,9.70
2023-01-19T01:57:29.826Z,11.02
2023-01-19T01:59:57.132Z,10.20
2023-01-19T02:02:44.858Z,10.48
2023-01-19T02:05:16.686Z,10.32
2023-01-19T02:08:06.263Z,10.38
2023-01-19T02:10:51.918Z,10.48
2023-01-19T02:13:22.987Z,9.73
2023-01-19T02:15:59.522Z,10.73
2023-01-19T02:18:30.829Z,10.80
2023-01-19T02:21:13.161Z,9.65
2023-01-19T02:23:45.789Z,10.43
2023-01-19T02:26:16.059Z,10.90
2023-01-19T02:28:46.774Z,10.35
2023-01-19T02:31:15.039Z,10.77
2023-01-19T02:33:41.761Z,9.43
2023-01-19T02:36:10.216Z,10.52
2023-01-19T02:38:38.402Z,9.68
2023-01-19T02:41:06.651Z,10.77
2023-01-19T02:43:33.424Z,9.32
2023-01-19T02:45:59.883Z,10.35
2023-01-19T02:48:26.506Z,9.20
2023-01-19T02:51:17.755Z,8.70
2023-01-19T02:54:05.485Z,10.10
2023-01-19T02:56:32.352Z,10.98
2023-01-19T02:59:10.041Z,9.80
2023-01-19T03:01:48.594Z,10.05
2023-01-19T03:04:42.184Z,9.88
2023-01-19T03:07:16.660Z,9.75
2023-01-19T03:10:21.255Z,9.98
2023-01-19T03:12:58.792Z,10.07
2023-01-19T03:15:30.636Z,9.43
2023-01-19T03:17:58.261Z,10.25
2023-01-19T03:20:25.670Z,9.93
2023-01-19T03:22:56.183Z,9.25
2023-01-19T03:25:23.419Z,8.75
2023-01-19T03:27:51.254Z,8.45
2023-01-19T03:30:22.942Z,9.55
2023-01-19T03:33:03.180Z,9.15
2023-01-19T03:35:32.387Z,9.93
2023-01-19T03:38:01.042Z,9.00
2023-01-19T03:40:29.781Z,8.90
2023-01-19T03:42:56.684Z,8.60
2023-01-19T03:45:23.532Z,9.20
2023-01-19T03:47:50.225Z,9.27
2023-01-19T03:50:29.531Z,7.75
2023-01-19T03:53:06.697Z,8.05
2023-01-19T03:55:34.169Z,8.77
2023-01-19T03:58:00.611Z,10.43
2023-01-19T04:00:27.076Z,8.38
2023-01-19T04:02:53.640Z,9.70
2023-01-19T04:05:20.118Z,7.03
2023-01-19T04:07:49.336Z,8.52
2023-01-19T04:10:17.497Z,9.38
2023-01-19T04:12:44.269Z,7.65
2023-01-19T04:15:10.974Z,8.05
2023-01-19T04:17:38.406Z,9.00
2023-01-19T04:20:06.007Z,8.52
2023-01-19T04:22:32.582Z,9.25
2023-01-19T04:24:59.200Z,8.85
2023-01-19T04:27:26.116Z,9.65
2023-01-19T04:29:52.866Z,7.45
2023-01-19T04:32:19.696Z,9.35
2023-01-19T04:34:46.113Z,8.90
2023-01-19T04:37:12.655Z,10.65
2023-01-19T04:39:39.134Z,9.35
2023-01-19T04:42:06.365Z,11.18
2023-01-19T04:44:39.057Z,11.27
2023-01-19T04:47:05.517Z,10.00
2023-01-19T04:49:31.981Z,13.70
2023-01-19T04:51:59.481Z,12.65
2023-01-19T04:54:26.956Z,12.23
2023-01-19T04:56:53.426Z,13.63
2023-01-19T04:59:20.455Z,12.00
2023-01-19T05:01:53.200Z,11.73
2023-01-19T05:04:19.802Z,13.38
2023-01-19T05:06:49.798Z,13.05
2023-01-19T05:09:16.855Z,13.05
2023-01-19T05:11:43.366Z,13.13
2023-01-19T05:14:09.850Z,13.40
2023-01-19T05:16:36.323Z,12.85
2023-01-19T05:19:03.057Z,13.00
2023-01-19T05:21:29.719Z,12.38
2023-01-19T05:23:56.255Z,11.35
2023-01-19T05:26:22.912Z,12.35
2023-01-19T05:28:50.295Z,11.15
2023-01-19T05:31:18.661Z,10.65
2023-01-19T05:33:45.982Z,11.60
2023-01-19T05:36:12.367Z,12.90
2023-01-19T05:38:39.055Z,11.98
2023-01-19T05:41:05.661Z,11.23
2023-01-19T05:43:32.262Z,12.10
2023-01-19T05:45:58.908Z,11.93
2023-01-19T05:48:25.503Z,11.15
2023-01-19T05:50:57.356Z,11.18
2023-01-19T05:53:23.825Z,12.07
2023-01-19T05:55:50.261Z,12.55
2023-01-19T05:58:16.944Z,11.63
2023-01-19T06:00:43.511Z,12.07
2023-01-19T06:03:10.024Z,11.80
2023-01-19T06:05:38.421Z,11.35
2023-01-19T06:08:05.302Z,11.18
2023-01-19T06:10:31.755Z,11.68
2023-01-19T06:13:01.705Z,10.55
2023-01-19T06:15:28.566Z,10.20
2023-01-19T06:17:55.383Z,11.90
2023-01-19T06:20:24.178Z,11.85
2023-01-19T06:22:50.759Z,10.48
2023-01-19T06:25:17.206Z,10.40
2023-01-19T06:27:45.116Z,9.90
2023-01-19T06:30:12.455Z,10.13
2023-01-19T06:32:38.869Z,8.80
2023-01-19T06:35:07.815Z,10.30
2023-01-19T06:37:35.094Z,10.77
2023-01-19T06:40:01.712Z,9.15
2023-01-19T06:42:28.190Z,11.35
2023-01-19T06:44:54.673Z,10.13
2023-01-19T06:47:21.118Z,10.95
2023-01-19T06:49:48.178Z,9.23
2023-01-19T06:52:17.367Z,10.13
2023-01-19T06:54:46.964Z,9.50
2023-01-19T06:57:14.241Z,10.27
2023-01-19T06:59:41.007Z,10.43
2023-01-19T07:02:26.947Z,10.65
2023-01-19T07:04:54.075Z,9.23
2023-01-19T07:07:20.527Z,9.70
2023-01-19T07:09:46.996Z,10.52
2023-01-19T07:12:14.616Z,10.85
2023-01-19T07:14:41.093Z,9.00
2023-01-19T07:17:07.772Z,9.30
2023-01-19T07:19:35.274Z,10.30
2023-01-19T07:22:03.254Z,10.18
2023-01-19T07:24:34.163Z,8.15
2023-01-19T07:29:27.007Z,9.00
2023-01-19T07:31:54.687Z,9.18
2023-01-19T07:34:21.558Z,9.50
2023-01-19T07:36:48.092Z,10.70
2023-01-19T07:39:14.860Z,11.25
2023-01-19T07:41:41.369Z,10.60
2023-01-19T07:44:08.800Z,12.68
2023-01-19T07:46:35.240Z,12.65
2023-01-19T07:49:01.678Z,13.35
2023-01-19T07:51:28.102Z,15.00
2023-01-19T07:53:54.551Z,14.75
2023-01-19T07:56:21.985Z,14.30
2023-01-19T07:58:50.376Z,13.70
2023-01-19T08:01:16.988Z,15.52
2023-01-19T08:03:43.848Z,14.07
2023-01-19T08:06:19.669Z,14.43
2023-01-19T08:08:46.178Z,16.10
2023-01-19T08:11:12.631Z,15.10
2023-01-19T08:13:39.127Z,17.35
2023-01-19T08:16:06.279Z,16.77
2023-01-19T08:18:33.100Z,18.08
2023-01-19T08:21:00.417Z,16.35
2023-01-19T08:23:29.858Z,16.02
2023-01-19T08:25:56.373Z,16.60
2023-01-19T08:28:22.957Z,16.23
2023-01-19T08:30:54.626Z,16.65
2023-01-19T08:33:22.978Z,17.02
2023-01-19T08:35:51.800Z,17.33
2023-01-19T08:38:18.475Z,15.18
2023-01-19T08:40:45.428Z,16.83
2023-01-19T08:43:15.101Z,17.70
2023-01-19T08:45:48.418Z,17.58
2023-01-19T08:48:16.703Z,17.55
2023-01-19T08:50:46.105Z,18.33
2023-01-19T08:53:12.588Z,17.88
2023-01-19T08:55:39.217Z,17.45
2023-01-19T08:58:06.366Z,17.92
2023-01-19T09:00:37.948Z,18.67
2023-01-19T09:03:05.891Z,19.65
2023-01-19T09:05:37.127Z,19.65
2023-01-19T09:08:11.186Z,20.05
2023-01-19T09:10:39.134Z,20.45
2023-01-19T09:13:08.284Z,20.73
2023-01-19T09:15:37.483Z,22.00
2023-01-19T09:18:05.896Z,23.42
2023-01-19T09:20:34.598Z,24.10
2023-01-19T09:23:01.074Z,23.17
2023-01-19T09:25:27.648Z,24.63
2023-01-19T09:27:56.042Z,25.48
2023-01-19T09:30:22.533Z,27.63
2023-01-19T09:32:48.932Z,24.70
2023-01-19T09:35:15.488Z,26.02
2023-01-19T09:37:46.164Z,26.20
2023-01-19T09:40:13.573Z,22.30
2023-01-19T09:42:44.940Z,26.33
2023-01-19T09:45:19.110Z,26.17
2023-01-19T09:47:46.951Z,26.95
2023-01-19T09:50:24.022Z,22.45
2023-01-19T09:52:56.460Z,27.02
2023-01-19T09:55:26.223Z,27.38
2023-01-19T09:57:53.612Z,24.55
2023-01-19T10:00:20.582Z,28.85
2023-01-19T10:02:53.042Z,23.83
2023-01-19T10:05:31.738Z,27.58
2023-01-19T10:08:09.606Z,27.75
2023-01-19T10:10:37.676Z,26.98
2023-01-19T10:13:19.067Z,23.45
2023-01-19T10:15:48.533Z,28.77
2023-01-19T10:18:32.988Z,27.80
2023-01-19T10:21:05.545Z,27.50
2023-01-19T10:23:36.568Z,27.88
2023-01-19T10:26:25.809Z,22.58
2023-01-19T10:29:22.486Z,26.95
2023-01-19T10:31:51.966Z,27.25
2023-01-19T10:34:23.622Z,25.63
2023-01-19T10:36:54.763Z,26.60
2023-01-19T10:39:21.291Z,25.85
2023-01-19T10:41:51.340Z,24.10
2023-01-19T10:44:29.149Z,23.63
2023-01-19T10:46:57.757Z,26.25
2023-01-19T10:49:33.773Z,28.63
2023-01-19T10:52:00.655Z,23.27
2023-01-19T10:54:28.363Z,27.23
2023-01-19T10:56:59.377Z,28.63
2023-01-19T11:02:18.496Z,26.88
2023-01-19T11:04:47.333Z,29.50
2023-01-19T11:07:22.991Z,24.67
2023-01-19T11:09:50.053Z,22.63
2023-01-19T11:12:18.552Z,28.83
2023-01-19T11:14:45.706Z,28.00
2023-01-19T11:17:20.520Z,24.75
2023-01-19T11:19:58.943Z,27.00
2023-01-19T11:22:34.575Z,27.90
2023-01-19T11:25:03.361Z,29.25
2023-01-19T11:27:31.688Z,25.50
2023-01-19T11:30:10.491Z,28.35
2023-01-19T11:32:37.249Z,28.50
2023-01-19T11:35:37.617Z,29.10
2023-01-19T11:38:13.067Z,27.27
2023-01-19T11:40:40.058Z,30.55
2023-01-19T11:43:11.468Z,25.23
2023-01-19T11:45:39.014Z,28.00
2023-01-19T11:48:06.075Z,31.38
2023-01-19T11:50:41.230Z,27.75
2023-01-19T11:53:33.259Z,25.10
2023-01-19T11:56:09.965Z,27.65
2023-01-19T11:58:42.270Z,24.33
2023-01-19T12:01:39.257Z,26.25
2023-01-19T12:04:33.505Z,25.23
2023-01-19T12:07:07.049Z,28.25
2023-01-19T12:09:36.778Z,27.38
2023-01-19T12:12:06.278Z,33.00
2023-01-19T12:14:43.110Z,29.08
2023-01-19T12:17:21.651Z,31.35
2023-01-19T12:19:56.459Z,34.08
2023-01-19T12:22:24.004Z,29.58
2023-01-19T12:24:58.580Z,33.08
2023-01-19T12:27:45.543Z,28.85
2023-01-19T12:30:24.002Z,37.58
2023-01-19T12:32:51.301Z,34.17
2023-01-19T12:35:56.893Z,32.42
2023-01-19T12:38:49.599Z,33.58
2023-01-19T12:41:25.103Z,32.30
2023-01-19T12:44:10.633Z,28.95
2023-01-19T12:46:41.683Z,32.13
2023-01-19T12:49:20.482Z,31.95
2023-01-19T12:51:47.759Z,29.40
2023-01-19T12:54:31.483Z,33.58
2023-01-19T12:57:08.594Z,32.67
2023-01-19T12:59:36.522Z,29.35
2023-01-19T13:02:18.314Z,34.08
2023-01-19T13:05:06.656Z,29.40
2023-01-19T13:08:07.869Z,34.55
2023-01-19T13:13:31.876Z,32.22
2023-01-19T13:16:18.412Z,30.10
2023-01-19T13:18:48.521Z,30.92
2023-01-19T13:21:30.428Z,31.08
2023-01-19T13:24:00.999Z,33.78
2023-01-19T13:26:29.907Z,35.95
2023-01-19T13:29:03.595Z,34.05
2023-01-19T13:31:38.084Z,34.42
2023-01-19T13:34:11.173Z,34.10
2023-01-19T13:36:41.269Z,32.30
2023-01-19T13:39:13.456Z,31.55
2023-01-19T13:41:41.408Z,31.70
2023-01-19T13:44:51.294Z,29.30
2023-01-19T13:47:36.114Z,31.95
2023-01-19T13:50:03.044Z,32.15
2023-01-19T13:52:29.843Z,33.95
2023-01-19T13:55:05.753Z,34.05
2023-01-19T13:57:38.438Z,31.42
2023-01-19T14:00:17.099Z,31.05
2023-01-19T14:03:11.373Z,30.08
2023-01-19T14:05:42.346Z,28.15
2023-01-19T14:10:36.716Z,26.15
2023-01-19T14:13:05.832Z,26.38
2023-01-19T14:15:34.258Z,27.80
2023-01-19T14:18:19.121Z,28.13
2023-01-19T14:21:02.758Z,29.13
2023-01-19T14:23:50.934Z,27.88
2023-01-19T14:26:43.067Z,25.90
2023-01-19T14:29:21.562Z,24.92
2023-01-19T14:32:05.323Z,25.75
2023-01-19T14:34:38.056Z,24.92
2023-01-19T14:37:31.635Z,25.17
2023-01-19T14:40:04.639Z,23.80
2023-01-19T14:42:33.956Z,24.13
2023-01-19T14:45:02.081Z,24.08
2023-01-19T14:47:33.311Z,23.48
2023-01-19T14:50:04.887Z,23.23
2023-01-19T14:52:35.258Z,25.90
2023-01-19T14:55:06.855Z,22.45
2023-01-19T14:57:36.144Z,21.83
2023-01-19T15:00:12.416Z,21.35
2023-01-19T15:02:39.009Z,20.60
2023-01-19T15:05:06.156Z,21.83
2023-01-19T15:07:32.717Z,20.65
2023-01-19T15:09:59.379Z,21.42
2023-01-19T15:12:27.733Z,19.00
2023-01-19T15:14:54.186Z,21.55
2023-01-19T15:17:27.516Z,18.77
2023-01-19T15:19:56.202Z,21.40
2023-01-19T15:22:26.734Z,20.15
2023-01-19T15:24:57.429Z,21.10
2023-01-19T15:27:24.270Z,20.50
2023-01-19T15:29:50.795Z,19.75
2023-01-19T15:32:17.266Z,19.70
2023-01-19T15:34:43.710Z,19.98
2023-01-19T15:37:10.217Z,18.80
2023-01-19T15:39:36.695Z,18.75
2023-01-19T15:42:05.547Z,19.15
2023-01-19T15:44:32.099Z,19.25
2023-01-19T15:46:58.809Z,17.98
2023-01-19T15:49:26.184Z,19.65
2023-01-19T15:51:52.895Z,17.85
2023-01-19T15:54:19.510Z,18.55
2023-01-19T15:56:46.244Z,18.15
2023-01-19T15:59:12.766Z,15.88
2023-01-19T16:01:40.326Z,18.08
2023-01-19T16:04:09.476Z,18.65
2023-01-19T16:06:35.893Z,17.95
2023-01-19T16:09:03.814Z,17.63
2023-01-19T16:11:33.386Z,16.17
2023-01-19T16:14:00.061Z,18.17
2023-01-19T16:16:28.017Z,17.50
2023-01-19T16:18:54.844Z,15.90
2023-01-19T16:21:21.529Z,19.33
2023-01-19T16:23:48.037Z,18.42
2023-01-19T16:26:41.031Z,18.30
2023-01-19T16:29:09.800Z,15.75
2023-01-19T16:31:41.376Z,18.25
2023-01-19T16:34:08.485Z,15.90
2023-01-19T16:36:54.048Z,17.77
2023-01-19T16:39:20.541Z,16.38
2023-01-19T16:41:47.032Z,14.05
2023-01-19T16:44:15.377Z,18.90
2023-01-19T16:46:44.422Z,15.48
2023-01-19T16:49:13.966Z,18.30
2023-01-19T16:51:40.871Z,15.63
2023-01-19T16:54:07.474Z,18.33
2023-01-19T16:56:33.931Z,17.13
2023-01-19T16:59:00.439Z,15.30
2023-01-19T17:01:28.445Z,15.13
2023-01-19T17:03:55.500Z,13.60
2023-01-19T17:06:24.653Z,14.88
2023-01-19T17:08:52.377Z,13.80
2023-01-19T17:11:24.787Z,13.52
2023-01-19T17:13:56.248Z,14.18
2023-01-19T17:16:26.702Z,15.23
2023-01-19T17:18:53.885Z,15.40
2023-01-19T17:21:20.511Z,15.45
2023-01-19T17:23:48.942Z,15.57
2023-01-19T17:26:16.185Z,15.65
2023-01-19T17:28:43.150Z,14.43
2023-01-19T17:31:14.805Z,15.60
2023-01-19T17:33:44.219Z,15.65
2023-01-19T17:36:13.307Z,15.27
2023-01-19T17:38:40.146Z,16.10
2023-01-19T17:41:18.125Z,16.00
2023-01-19T17:43:45.308Z,15.50
2023-01-19T17:46:13.513Z,17.50
2023-01-19T17:48:40.413Z,15.68
2023-01-19T17:51:13.890Z,17.83
2023-01-19T17:53:41.143Z,16.40
2023-01-19T17:56:12.633Z,18.15
2023-01-19T17:58:39.635Z,18.92
2023-01-19T18:01:13.291Z,18.20
2023-01-19T18:03:40.256Z,18.77
2023-01-19T18:06:07.243Z,18.98
2023-01-19T18:08:34.711Z,19.80
2023-01-19T18:11:01.907Z,17.00
2023-01-19T18:13:28.867Z,20.65
2023-01-19T18:16:00.073Z,19.98
2023-01-19T18:18:26.873Z,21.20
2023-01-19T18:20:53.470Z,21.23
2023-01-19T18:23:19.993Z,22.40
2023-01-19T18:25:46.555Z,21.13
2023-01-19T18:28:12.994Z,22.00
2023-01-19T18:30:39.548Z,25.42
2023-01-19T18:33:06.314Z,22.85
2023-01-19T18:35:32.825Z,22.20
2023-01-19T18:37:59.359Z,22.00
2023-01-19T18:40:25.937Z,20.00
2023-01-19T18:42:52.383Z,21.35
2023-01-19T18:45:24.709Z,19.70
2023-01-19T18:47:51.211Z,23.27
2023-01-19T18:50:18.925Z,17.00
2023-01-19T18:52:48.736Z,19.15
2023-01-19T18:55:15.179Z,20.30
2023-01-19T18:57:41.635Z,21.10
2023-01-19T19:00:08.698Z,18.63
2023-01-19T19:02:35.153Z,18.20
2023-01-19T19:05:02.754Z,19.10
2023-01-19T19:07:29.421Z,20.17
2023-01-19T19:09:55.864Z,19.80
2023-01-19T19:12:22.450Z,18.05
2023-01-19T19:14:48.896Z,20.27
2023-01-19T19:17:15.340Z,18.95
2023-01-19T19:19:41.876Z,19.42
2023-01-19T19:22:08.313Z,18.60
2023-01-19T19:24:35.394Z,15.52
2023-01-19T19:27:01.791Z,19.80
2023-01-19T19:29:28.537Z,19.10
2023-01-19T19:31:58.906Z,19.40
2023-01-19T19:34:25.595Z,20.17
2023-01-19T19:36:52.142Z,19.08
2023-01-19T19:39:18.625Z,18.70
2023-01-19T19:41:45.221Z,19.90
2023-01-19T19:44:14.639Z,20.25
2023-01-19T19:46:41.404Z,20.70
2023-01-19T19:49:07.918Z,18.13
2023-01-19T19:51:34.390Z,21.25
2023-01-19T19:54:01.217Z,20.70
2023-01-19T19:56:29.469Z,20.33
2023-01-19T19:58:57.174Z,17.42
2023-01-19T20:01:28.553Z,22.95
2023-01-19T20:03:56.917Z,20.58
2023-01-19T20:06:25.356Z,18.45
2023-01-19T20:08:54.247Z,20.85
2023-01-19T20:11:22.979Z,17.98
2023-01-19T20:13:50.743Z,27.02
2023-01-19T20:16:19.485Z,19.40
2023-01-19T20:18:48.569Z,19.63
2023-01-19T20:21:22.307Z,17.60
2023-01-19T20:23:50.401Z,18.75
2023-01-19T20:26:19.464Z,18.95
2023-01-19T20:28:46.029Z,19.15
2023-01-19T20:31:19.013Z,16.83
2023-01-19T20:33:46.796Z,19.10
2023-01-19T20:36:13.532Z,16.20
2023-01-19T20:38:40.553Z,20.58
2023-01-19T20:41:08.970Z,17.50
2023-01-19T20:43:35.532Z,17.05
2023-01-19T20:46:02.326Z,15.07
2023-01-19T20:48:28.931Z,16.50
2023-01-19T20:51:04.781Z,18.23
2023-01-19T20:53:32.019Z,18.05
2023-01-19T20:55:58.760Z,18.42
2023-01-19T20:58:25.265Z,18.05
2023-01-19T21:00:51.823Z,18.38
2023-01-19T21:03:18.281Z,16.73
2023-01-19T21:05:47.514Z,16.20
2023-01-19T21:08:14.803Z,14.40
2023-01-19T21:10:41.957Z,16.65
2023-01-19T21:13:08.872Z,16.63
2023-01-19T21:15:35.322Z,17.13
2023-01-19T21:18:01.842Z,16.98
2023-01-19T21:20:32.958Z,17.10
2023-01-19T21:22:59.411Z,14.52
2023-01-19T21:25:26.057Z,16.80
2023-01-19T21:27:52.467Z,16.73
2023-01-19T21:30:19.013Z,18.13
2023-01-19T21:32:45.496Z,18.00
2023-01-19T21:35:12.330Z,18.15
2023-01-19T21:37:38.977Z,14.43
2023-01-19T21:40:06.140Z,19.20
2023-01-19T21:42:32.649Z,18.90
2023-01-19T21:44:59.056Z,18.13
2023-01-19T21:47:25.549Z,18.13
2023-01-19T21:49:52.005Z,17.75
2023-01-19T21:52:18.442Z,18.50
2023-01-19T21:54:44.875Z,17.27
2023-01-19T21:57:11.755Z,19.00
2023-01-19T21:59:38.178Z,17.50
2023-01-19T22:02:04.801Z,17.27
2023-01-19T22:04:31.253Z,14.60
2023-01-19T22:06:57.749Z,16.45
2023-01-19T22:09:24.166Z,18.00
2023-01-19T22:11:50.540Z,18.10
2023-01-19T22:14:16.985Z,18.83
2023-01-19T22:16:43.490Z,18.17
2023-01-19T22:19:12.584Z,18.55
2023-01-19T22:21:39.671Z,18.27
2023-01-19T22:24:06.615Z,20.15
2023-01-19T22:26:34.154Z,19.20
2023-01-19T22:29:01.416Z,18.45
2023-01-19T22:31:28.839Z,19.70
2023-01-19T22:33:55.566Z,20.50
2023-01-19T22:36:30.075Z,19.65
2023-01-19T22:39:02.543Z,18.70
2023-01-19T22:41:34.026Z,19.58
2023-01-19T22:44:05.491Z,22.05
2023-01-19T22:46:33.339Z,18.30
2023-01-19T22:49:00.340Z,20.88
2023-01-19T22:51:28.259Z,21.88
2023-01-19T22:53:54.955Z,24.02
2023-01-19T22:56:26.047Z,20.40
2023-01-19T22:58:52.790Z,22.63
2023-01-19T23:01:24.229Z,21.55
2023-01-19T23:03:51.620Z,22.30
2023-01-19T23:06:22.780Z,25.77
2023-01-19T23:08:49.467Z,20.67
2023-01-19T23:11:18.394Z,23.83
2023-01-19T23:13:45.154Z,23.80
2023-01-19T23:16:12.672Z,24.17
2023-01-19T23:18:40.080Z,20.45
2023-01-19T23:21:15.194Z,25.08
2023-01-19T23:23:41.837Z,24.00
2023-01-19T23:26:17.177Z,23.13
2023-01-19T23:28:44.554Z,21.02
2023-01-19T23:31:25.447Z,25.23
2023-01-19T23:33:54.220Z,18.85
2023-01-19T23:36:22.563Z,23.55
2023-01-19T23:38:57.059Z,22.38
2023-01-19T23:41:24.522Z,22.92
2023-01-19T23:43:51.696Z,24.63
2023-01-19T23:46:18.714Z,24.83
2023-01-19T23:48:46.700Z,25.35
2023-01-19T23:51:15.893Z,24.75
2023-01-19T23:53:42.458Z,26.98
2023-01-19T23:56:22.861Z,25.25
2023-01-19T23:58:59.701Z,24.77
